Time;durP1;ratioP1;P1;durP2;ratioP2;P2;SDS_P1;SDS_P2;PMS_P1;PMS_P2;Temp;Humidity;BMP_temperature;BMP_pressure;BME280_temperature;BME280_humidity;BME280_pressure;Samples;Min_cycle;Max_cycle;Signal;HPM_P1;HPM_P2
2023/12/08 00:02:07;;;;;;;971.88;105.53;;;;;;;;;;4929655;28;20897;-85
2023/12/08 00:04:35;;;;;;;950.42;101.40;;;;;;;;;;4911918;28;20156;-85
2023/12/08 00:07:01;;;;;;;942.30;100.70;;;;;;;;;;4930746;28;20875;-85
2023/12/08 00:09:28;;;;;;;950.72;102.38;;;;;;;;;;4912490;28;20744;-84
2023/12/08 00:11:55;;;;;;;942.05;101.70;;;;;;;;;;4928245;28;20982;-85
2023/12/08 00:14:22;;;;;;;975.13;104.07;;;;;;;;;;4910778;28;20119;-85
2023/12/08 00:16:48;;;;;;;961.70;103.72;;;;;;;;;;4933892;28;20047;-85
2023/12/08 00:19:15;;;;;;;1003.08;112.00;;;;;;;;;;4932806;28;20144;-85
2023/12/08 00:21:42;;;;;;;939.47;100.47;;;;;;;;;;4933047;28;20110;-85
2023/12/08 00:24:08;;;;;;;998.72;106.65;;;;;;;;;;4931102;28;20967;-85
2023/12/08 00:26:35;;;;;;;939.65;99.85;;;;;;;;;;4932569;28;20148;-85
2023/12/08 00:29:04;;;;;;;936.53;98.95;;;;;;;;;;4931751;28;20071;-85
2023/12/08 00:31:31;;;;;;;1012.72;109.70;;;;;;;;;;4931355;28;20921;-86
2023/12/08 00:33:58;;;;;;;944.92;96.03;;;;;;;;;;4919587;28;20049;-86
2023/12/08 00:36:24;;;;;;;939.25;100.57;;;;;;;;;;4932799;28;20041;-85
2023/12/08 00:38:51;;;;;;;874.65;92.07;;;;;;;;;;4942219;28;20148;-86
2023/12/08 00:41:18;;;;;;;832.70;86.20;;;;;;;;;;4929721;28;20049;-85
2023/12/08 00:43:45;;;;;;;833.03;87.85;;;;;;;;;;4929620;28;20115;-85
2023/12/08 00:46:14;;;;;;;1017.35;109.75;;;;;;;;;;4924676;28;20037;-85
2023/12/08 00:48:41;;;;;;;939.30;97.95;;;;;;;;;;4932563;28;20099;-85
2023/12/08 00:51:07;;;;;;;944.75;101.32;;;;;;;;;;4933435;28;20041;-85
2023/12/08 00:53:34;;;;;;;945.25;101.03;;;;;;;;;;4932904;28;20060;-86
2023/12/08 00:56:01;;;;;;;948.53;102.65;;;;;;;;;;4934104;28;20041;-86
2023/12/08 00:58:27;;;;;;;955.63;102.72;;;;;;;;;;4929350;28;20052;-85
2023/12/08 01:00:54;;;;;;;963.13;103.10;;;;;;;;;;4934064;28;20045;-86
2023/12/08 01:03:21;;;;;;;952.60;100.88;;;;;;;;;;4931797;28;20992;-86
2023/12/08 01:05:47;;;;;;;933.10;97.20;;;;;;;;;;4933043;28;21099;-86
2023/12/08 01:08:15;;;;;;;1008.78;109.18;;;;;;;;;;4931282;28;20071;-85
2023/12/08 01:10:41;;;;;;;954.97;102.93;;;;;;;;;;4932264;28;20029;-85
2023/12/08 01:13:09;;;;;;;975.78;104.15;;;;;;;;;;4933043;28;20071;-85
2023/12/08 01:15:35;;;;;;;947.95;102.05;;;;;;;;;;4931892;28;20068;-86
2023/12/08 01:18:02;;;;;;;950.65;101.32;;;;;;;;;;4912319;28;20040;-86
2023/12/08 01:20:29;;;;;;;933.95;98.97;;;;;;;;;;4914106;28;20076;-85
2023/12/08 01:22:56;;;;;;;1010.90;108.57;;;;;;;;;;4930275;28;20961;-85
2023/12/08 01:25:22;;;;;;;962.47;102.63;;;;;;;;;;4930272;28;20747;-85
2023/12/08 01:27:49;;;;;;;936.25;99.47;;;;;;;;;;4933123;28;20090;-85
2023/12/08 01:30:16;;;;;;;950.47;101.22;;;;;;;;;;4929307;28;20040;-85
2023/12/08 01:32:43;;;;;;;944.38;100.10;;;;;;;;;;4929539;28;20148;-86
2023/12/08 01:35:10;;;;;;;967.97;102.93;;;;;;;;;;4929705;28;20040;-85
2023/12/08 01:37:36;;;;;;;963.72;102.07;;;;;;;;;;4930802;28;20591;-85
2023/12/08 01:40:03;;;;;;;969.90;103.65;;;;;;;;;;4931933;28;21077;-85
2023/12/08 01:42:30;;;;;;;945.47;101.80;;;;;;;;;;4932403;28;21036;-85
2023/12/08 01:44:56;;;;;;;986.58;104.57;;;;;;;;;;4929642;28;20037;-85
2023/12/08 01:47:24;;;;;;;943.60;101.32;;;;;;;;;;4922207;28;20111;-85
2023/12/08 01:49:51;;;;;;;938.85;101.18;;;;;;;;;;4914594;28;20040;-85
2023/12/08 01:52:21;;;;;;;1028.18;112.57;;;;;;;;;;4930727;28;20514;-86
2023/12/08 01:54:50;;;;;;;992.45;107.43;;;;;;;;;;4934877;28;20049;-85
2023/12/08 01:57:17;;;;;;;952.47;102.15;;;;;;;;;;4929355;28;20041;-86
2023/12/08 01:59:44;;;;;;;948.75;101.68;;;;;;;;;;4911745;28;20108;-85
2023/12/08 02:02:10;;;;;;;153.23;25.45;;;;;;;;;;5138680;22;20159;-86
2023/12/08 02:04:37;;;;;;;156.40;26.45;;;;;;;;;;5007795;28;20029;-87
2023/12/08 02:07:04;;;;;;;183.68;31.33;;;;;;;;;;5004704;28;20045;-88
2023/12/08 02:09:31;;;;;;;167.80;26.42;;;;;;;;;;5004375;28;20030;-88
2023/12/08 02:11:58;;;;;;;106.57;23.95;;;;;;;;;;5018389;28;20125;-87
2023/12/08 02:14:26;;;;;;;93.00;22.73;;;;;;;;;;5014637;28;20045;-88
2023/12/08 02:16:53;;;;;;;149.25;25.35;;;;;;;;;;5007326;28;20470;-87
2023/12/08 02:19:20;;;;;;;156.10;28.00;;;;;;;;;;5010903;28;20045;-87
2023/12/08 02:21:47;;;;;;;104.40;22.95;;;;;;;;;;5010079;28;20124;-88
2023/12/08 02:24:19;;;;;;;154.95;27.13;;;;;;;;;;5011039;28;20034;-87
2023/12/08 02:26:47;;;;;;;131.07;24.83;;;;;;;;;;5015456;28;20037;-87
2023/12/08 02:29:14;;;;;;;104.20;24.02;;;;;;;;;;5013342;28;20037;-87
2023/12/08 02:32:04;;;;;;;118.55;23.65;;;;;;;;;;5010688;28;20045;-90
2023/12/08 02:34:31;;;;;;;111.00;22.90;;;;;;;;;;4989417;28;20100;-87
2023/12/08 02:37:00;;;;;;;137.48;26.85;;;;;;;;;;4985569;28;20046;-88
2023/12/08 02:39:28;;;;;;;122.00;23.25;;;;;;;;;;4990801;28;20496;-87
2023/12/08 02:41:55;;;;;;;98.65;21.08;;;;;;;;;;5011192;28;20041;-88
2023/12/08 02:44:21;;;;;;;106.53;25.95;;;;;;;;;;5009487;28;20096;-87
2023/12/08 02:46:48;;;;;;;108.55;21.63;;;;;;;;;;5016366;28;20040;-88
2023/12/08 02:49:15;;;;;;;136.75;25.85;;;;;;;;;;5013455;28;20034;-87
2023/12/08 02:51:42;;;;;;;76.20;20.08;;;;;;;;;;4992814;28;20108;-87
2023/12/08 02:54:11;;;;;;;114.22;21.83;;;;;;;;;;5017202;28;20450;-87
2023/12/08 02:56:40;;;;;;;110.97;22.08;;;;;;;;;;5017025;28;20045;-87
2023/12/08 02:59:07;;;;;;;64.65;19.77;;;;;;;;;;5010659;28;20033;-87
2023/12/08 03:01:33;;;;;;;175.02;25.08;;;;;;;;;;5014045;28;20041;-87
2023/12/08 03:04:00;;;;;;;86.97;21.92;;;;;;;;;;5013674;28;20123;-87
2023/12/08 03:06:27;;;;;;;95.00;22.08;;;;;;;;;;5011288;28;20447;-87
2023/12/08 03:08:54;;;;;;;194.43;26.25;;;;;;;;;;5001512;28;20143;-88
2023/12/08 03:11:20;;;;;;;109.90;22.25;;;;;;;;;;5005788;28;20129;-88
2023/12/08 03:13:47;;;;;;;99.03;22.48;;;;;;;;;;5015017;28;20103;-88
2023/12/08 03:16:14;;;;;;;147.35;25.20;;;;;;;;;;5004904;28;20468;-88
2023/12/08 03:18:41;;;;;;;171.23;27.05;;;;;;;;;;5001319;28;20045;-89
2023/12/08 03:21:07;;;;;;;103.82;21.77;;;;;;;;;;5005119;28;20048;-87
2023/12/08 03:23:34;;;;;;;92.13;19.30;;;;;;;;;;5012088;28;20042;-87
2023/12/08 03:26:02;;;;;;;92.88;20.80;;;;;;;;;;5015972;28;20080;-87
2023/12/08 03:28:29;;;;;;;114.15;22.33;;;;;;;;;;5010877;28;20037;-87
2023/12/08 03:30:55;;;;;;;99.95;20.30;;;;;;;;;;5012400;28;20512;-86
2023/12/08 03:33:22;;;;;;;74.55;18.92;;;;;;;;;;5012866;28;20038;-87
2023/12/08 03:35:49;;;;;;;102.47;22.27;;;;;;;;;;5008249;28;20073;-87
2023/12/08 03:38:16;;;;;;;151.20;23.40;;;;;;;;;;5012604;28;20141;-88
2023/12/08 03:40:42;;;;;;;94.03;21.20;;;;;;;;;;5013221;28;20041;-87
2023/12/08 03:43:09;;;;;;;110.22;21.15;;;;;;;;;;5010942;28;20037;-87
2023/12/08 03:45:35;;;;;;;131.52;24.20;;;;;;;;;;4996627;28;20085;-87
2023/12/08 03:48:02;;;;;;;113.95;23.77;;;;;;;;;;5015245;28;20046;-89
2023/12/08 03:50:29;;;;;;;77.32;18.90;;;;;;;;;;5019499;28;20128;-87
2023/12/08 03:52:56;;;;;;;80.28;18.98;;;;;;;;;;5021991;28;20040;-87
2023/12/08 03:55:22;;;;;;;73.10;18.27;;;;;;;;;;5021344;28;20069;-87
2023/12/08 03:57:49;;;;;;;57.40;16.48;;;;;;;;;;5021113;28;20399;-87
2023/12/08 04:00:16;;;;;;;89.90;19.00;;;;;;;;;;5027090;28;20373;-87
2023/12/08 04:02:43;;;;;;;60.42;17.83;;;;;;;;;;5033866;28;20029;-86
2023/12/08 04:05:09;;;;;;;54.90;19.13;;;;;;;;;;5038214;28;20037;-87
2023/12/08 04:07:36;;;;;;;93.00;19.48;;;;;;;;;;5025265;28;20045;-85
2023/12/08 04:10:03;;;;;;;80.80;17.98;;;;;;;;;;5024140;28;20561;-86
2023/12/08 04:12:30;;;;;;;47.35;17.33;;;;;;;;;;5021071;28;20038;-86
2023/12/08 04:14:56;;;;;;;76.72;20.98;;;;;;;;;;5025270;28;20108;-87
2023/12/08 04:17:23;;;;;;;65.00;18.63;;;;;;;;;;5026850;28;20494;-86
2023/12/08 04:19:50;;;;;;;55.33;19.40;;;;;;;;;;5023826;28;20034;-86
2023/12/08 04:22:17;;;;;;;76.65;20.77;;;;;;;;;;5023556;28;20051;-87
2023/12/08 04:24:44;;;;;;;96.07;20.67;;;;;;;;;;5008454;28;20416;-87
2023/12/08 04:27:10;;;;;;;42.38;19.05;;;;;;;;;;5022665;28;20025;-86
2023/12/08 04:29:37;;;;;;;65.35;19.17;;;;;;;;;;5024457;28;20043;-86
2023/12/08 04:32:04;;;;;;;75.40;20.88;;;;;;;;;;5024921;28;20044;-87
2023/12/08 04:34:31;;;;;;;54.35;19.60;;;;;;;;;;5022685;28;20403;-87
2023/12/08 04:36:58;;;;;;;78.35;19.80;;;;;;;;;;5023253;28;20464;-87
2023/12/08 04:39:25;;;;;;;74.38;19.15;;;;;;;;;;5012925;28;20037;-86
2023/12/08 04:41:52;;;;;;;55.30;18.88;;;;;;;;;;5021641;28;20281;-86
2023/12/08 04:44:19;;;;;;;78.07;21.77;;;;;;;;;;5004219;28;20034;-86
2023/12/08 04:46:45;;;;;;;98.18;18.20;;;;;;;;;;5026156;28;20033;-86
2023/12/08 04:49:12;;;;;;;111.80;23.40;;;;;;;;;;5018071;28;20038;-87
2023/12/08 04:51:42;;;;;;;95.95;22.25;;;;;;;;;;5012746;28;20543;-87
2023/12/08 04:54:09;;;;;;;125.47;23.92;;;;;;;;;;5013011;28;20041;-86
2023/12/08 04:56:35;;;;;;;119.28;23.58;;;;;;;;;;5010935;28;20042;-87
2023/12/08 04:59:02;;;;;;;99.85;25.05;;;;;;;;;;5014495;28;20042;-87
2023/12/08 05:01:30;;;;;;;109.82;22.50;;;;;;;;;;5013172;28;20061;-91
2023/12/08 05:03:56;;;;;;;73.72;19.98;;;;;;;;;;5043662;28;20022;-91
2023/12/08 05:06:26;;;;;;;77.78;19.52;;;;;;;;;;5048552;28;20068;-91
2023/12/08 05:08:53;;;;;;;77.43;20.75;;;;;;;;;;4998855;28;20050;-87
2023/12/08 05:11:19;;;;;;;128.30;23.65;;;;;;;;;;5010581;28;20049;-88
2023/12/08 05:13:48;;;;;;;154.32;27.80;;;;;;;;;;5013068;28;20867;-87
2023/12/08 05:16:15;;;;;;;133.70;27.08;;;;;;;;;;5011572;28;20618;-88
2023/12/08 05:18:42;;;;;;;82.55;15.57;;;;;;;;;;5017177;28;20411;-88
2023/12/08 05:21:09;;;;;;;189.52;31.92;;;;;;;;;;5012023;28;20542;-86
2023/12/08 05:23:36;;;;;;;115.05;24.33;;;;;;;;;;5000627;28;20448;-86
2023/12/08 05:26:03;;;;;;;119.95;25.02;;;;;;;;;;5016013;28;20560;-89
2023/12/08 05:28:30;;;;;;;136.48;27.73;;;;;;;;;;5010837;28;21006;-87
2023/12/08 05:30:56;;;;;;;93.53;24.38;;;;;;;;;;5011848;28;20108;-88
2023/12/08 05:33:23;;;;;;;94.63;23.85;;;;;;;;;;5016181;28;20045;-87
2023/12/08 05:35:50;;;;;;;74.60;21.92;;;;;;;;;;5004494;28;20084;-87
2023/12/08 05:38:16;;;;;;;84.75;22.92;;;;;;;;;;5019276;28;20984;-87
2023/12/08 05:40:43;;;;;;;117.07;24.52;;;;;;;;;;5020664;28;20554;-87
2023/12/08 05:43:10;;;;;;;78.97;22.92;;;;;;;;;;5018429;28;20045;-87
2023/12/08 05:45:37;;;;;;;86.95;22.95;;;;;;;;;;5014360;28;20119;-87
2023/12/08 05:48:04;;;;;;;125.00;27.17;;;;;;;;;;5011510;28;20042;-87
2023/12/08 05:50:31;;;;;;;63.60;23.08;;;;;;;;;;5010825;28;20044;-87
2023/12/08 05:52:57;;;;;;;360.25;44.40;;;;;;;;;;5003205;28;20119;-88
2023/12/08 05:55:24;;;;;;;106.35;22.73;;;;;;;;;;5006189;28;20404;-86
2023/12/08 05:57:51;;;;;;;60.25;20.45;;;;;;;;;;5018816;28;20488;-86
2023/12/08 06:00:18;;;;;;;68.63;19.15;;;;;;;;;;5021459;28;20041;-86
2023/12/08 06:02:46;;;;;;;91.97;21.20;;;;;;;;;;5021725;28;20365;-86
2023/12/08 06:05:13;;;;;;;89.20;21.77;;;;;;;;;;5022936;28;20104;-86
2023/12/08 06:07:39;;;;;;;71.72;21.23;;;;;;;;;;5016286;28;20041;-89
2023/12/08 06:10:11;;;;;;;108.25;22.58;;;;;;;;;;5017293;28;20540;-88
2023/12/08 06:12:42;;;;;;;66.72;20.08;;;;;;;;;;5016078;28;20095;-89
2023/12/08 06:15:09;;;;;;;59.15;20.35;;;;;;;;;;5019460;28;20366;-90
2023/12/08 06:17:37;;;;;;;97.32;21.75;;;;;;;;;;5014762;28;20698;-89
2023/12/08 06:20:09;;;;;;;88.20;22.92;;;;;;;;;;5017282;28;20042;-89
2023/12/08 06:22:36;;;;;;;223.93;33.35;;;;;;;;;;4998218;28;20030;-88
2023/12/08 06:25:03;;;;;;;159.77;28.48;;;;;;;;;;5010120;28;20979;-89
2023/12/08 06:27:30;;;;;;;97.20;22.67;;;;;;;;;;4994271;28;20049;-89
2023/12/08 06:29:57;;;;;;;71.35;20.75;;;;;;;;;;5015825;28;20099;-89
2023/12/08 06:32:25;;;;;;;127.50;26.23;;;;;;;;;;5018333;28;20034;-90
2023/12/08 06:34:53;;;;;;;181.93;32.92;;;;;;;;;;4994758;28;20036;-89
2023/12/08 06:37:20;;;;;;;530.95;62.35;;;;;;;;;;4964246;28;20041;-89
2023/12/08 06:39:47;;;;;;;295.08;39.90;;;;;;;;;;4986590;28;20099;-89
2023/12/08 06:42:13;;;;;;;159.13;28.42;;;;;;;;;;4994959;28;20049;-89
2023/12/08 06:44:41;;;;;;;267.38;36.97;;;;;;;;;;5012926;28;20044;-90
2023/12/08 06:47:08;;;;;;;401.13;47.72;;;;;;;;;;4991573;28;20049;-90
2023/12/08 06:49:35;;;;;;;256.52;35.92;;;;;;;;;;4993414;28;20824;-89
2023/12/08 06:52:02;;;;;;;670.83;73.60;;;;;;;;;;4974985;28;20050;-91
2023/12/08 06:54:28;;;;;;;298.45;39.17;;;;;;;;;;4974386;28;20053;-88
2023/12/08 06:56:55;;;;;;;190.13;31.02;;;;;;;;;;5000098;28;20483;-91
2023/12/08 06:59:22;;;;;;;159.63;27.70;;;;;;;;;;5000779;28;20045;-89
2023/12/08 07:01:48;;;;;;;124.75;23.50;;;;;;;;;;5001575;28;20634;-88
2023/12/08 07:04:15;;;;;;;110.72;23.58;;;;;;;;;;5015639;28;20045;-88
2023/12/08 07:06:42;;;;;;;82.78;20.42;;;;;;;;;;5012133;28;20475;-88
2023/12/08 07:09:11;;;;;;;441.27;49.70;;;;;;;;;;4966462;28;20148;-91
2023/12/08 07:11:38;;;;;;;348.98;41.25;;;;;;;;;;4991897;28;20037;-91
2023/12/08 07:14:05;;;;;;;289.17;37.05;;;;;;;;;;4983058;28;20445;-90
2023/12/08 07:16:31;;;;;;;58.80;20.35;;;;;;;;;;5001736;28;20032;-88
2023/12/08 07:18:58;;;;;;;83.72;21.33;;;;;;;;;;5015139;28;20038;-89
2023/12/08 07:21:26;;;;;;;93.72;20.85;;;;;;;;;;5014059;28;20038;-89
2023/12/08 07:23:52;;;;;;;60.45;20.50;;;;;;;;;;5020312;28;20464;-86
2023/12/08 07:26:19;;;;;;;81.63;21.70;;;;;;;;;;5023114;28;20555;-87
2023/12/08 07:28:46;;;;;;;85.82;20.73;;;;;;;;;;5022617;28;20064;-86
2023/12/08 07:31:13;;;;;;;258.85;35.63;;;;;;;;;;5010649;28;20937;-87
2023/12/08 07:33:40;;;;;;;65.10;22.67;;;;;;;;;;5018210;28;20038;-86
2023/12/08 07:36:07;;;;;;;263.90;34.83;;;;;;;;;;5016469;28;20044;-89
2023/12/08 07:38:34;;;;;;;57.65;15.60;;;;;;;;;;4998189;28;20094;-87
2023/12/08 07:41:01;;;;;;;326.80;38.35;;;;;;;;;;5011920;28;20748;-90
2023/12/08 07:43:27;;;;;;;609.22;65.55;;;;;;;;;;4973395;28;21171;-90
2023/12/08 07:45:54;;;;;;;72.75;19.42;;;;;;;;;;5016070;28;20396;-87
2023/12/08 07:48:21;;;;;;;171.98;26.92;;;;;;;;;;5008834;28;20462;-88
2023/12/08 07:50:48;;;;;;;249.63;32.53;;;;;;;;;;5002298;28;20564;-87
2023/12/08 07:53:15;;;;;;;321.73;39.55;;;;;;;;;;4976333;28;20034;-89
2023/12/08 07:55:41;;;;;;;152.05;25.95;;;;;;;;;;5015195;28;20757;-87
2023/12/08 07:58:08;;;;;;;75.57;19.52;;;;;;;;;;5021398;28;20491;-87
2023/12/08 08:00:37;;;;;;;62.60;21.35;;;;;;;;;;5010658;28;20187;-87
2023/12/08 08:03:06;;;;;;;61.35;17.92;;;;;;;;;;5015310;28;20069;-87
2023/12/08 08:05:33;;;;;;;84.32;20.40;;;;;;;;;;5023470;28;20120;-87
2023/12/08 08:08:02;;;;;;;65.90;19.88;;;;;;;;;;5028219;28;20022;-87
2023/12/08 08:10:28;;;;;;;56.50;18.20;;;;;;;;;;5025049;28;20447;-87
2023/12/08 08:12:55;;;;;;;75.45;19.85;;;;;;;;;;5020023;28;20049;-88
2023/12/08 08:15:21;;;;;;;91.43;21.85;;;;;;;;;;5016610;28;20504;-88
2023/12/08 08:17:48;;;;;;;460.75;48.17;;;;;;;;;;4962780;28;20049;-89
2023/12/08 08:20:15;;;;;;;205.60;28.77;;;;;;;;;;4969172;28;20169;-89
2023/12/08 08:22:41;;;;;;;175.38;28.40;;;;;;;;;;5001109;28;20037;-89
2023/12/08 08:25:08;;;;;;;157.38;25.92;;;;;;;;;;4990923;28;20441;-90
2023/12/08 08:27:36;;;;;;;410.65;44.70;;;;;;;;;;4992987;28;20144;-90
2023/12/08 08:30:03;;;;;;;352.92;41.42;;;;;;;;;;4974203;28;20071;-89
2023/12/08 08:32:30;;;;;;;124.28;24.13;;;;;;;;;;4995704;28;20045;-89
2023/12/08 08:34:58;;;;;;;624.38;70.65;;;;;;;;;;4972792;28;20048;-88
2023/12/08 08:37:25;;;;;;;267.95;34.22;;;;;;;;;;5006207;28;20052;-89
2023/12/08 08:39:53;;;;;;;84.47;20.08;;;;;;;;;;5012398;28;20055;-89
2023/12/08 08:42:20;;;;;;;378.88;44.22;;;;;;;;;;4990813;28;20818;-90
2023/12/08 08:44:46;;;;;;;274.85;34.75;;;;;;;;;;4992067;28;20448;-88
2023/12/08 08:47:13;;;;;;;149.73;26.85;;;;;;;;;;5007600;28;20688;-93
2023/12/08 08:49:41;;;;;;;109.93;20.83;;;;;;;;;;5004610;28;20034;-90
2023/12/08 08:52:07;;;;;;;212.63;28.75;;;;;;;;;;5011773;28;20033;-89
2023/12/08 08:54:34;;;;;;;82.30;19.50;;;;;;;;;;5004633;28;20126;-90
2023/12/08 08:57:01;;;;;;;386.60;45.78;;;;;;;;;;5010025;28;20881;-91
2023/12/08 08:59:27;;;;;;;164.63;25.92;;;;;;;;;;4987111;28;20084;-89
2023/12/08 09:01:54;;;;;;;87.45;22.20;;;;;;;;;;5006815;28;20049;-90
2023/12/08 09:04:21;;;;;;;269.60;33.40;;;;;;;;;;5014353;28;20053;-90
2023/12/08 09:06:51;;;;;;;388.63;44.67;;;;;;;;;;4992439;28;20168;-91
2023/12/08 09:09:17;;;;;;;181.60;27.23;;;;;;;;;;4979452;28;20033;-89
2023/12/08 09:11:44;;;;;;;293.70;36.17;;;;;;;;;;4997025;28;20033;-90
2023/12/08 09:14:11;;;;;;;132.05;24.92;;;;;;;;;;5015067;28;20516;-90
2023/12/08 09:16:37;;;;;;;295.42;33.28;;;;;;;;;;4980024;28;20155;-90
2023/12/08 09:19:05;;;;;;;489.27;53.17;;;;;;;;;;4973136;28;20046;-90
2023/12/08 09:21:32;;;;;;;297.50;35.83;;;;;;;;;;4981836;28;20914;-90
2023/12/08 09:24:07;;;;;;;173.88;27.60;;;;;;;;;;5007706;28;20037;-89
2023/12/08 09:26:35;;;;;;;147.82;23.23;;;;;;;;;;5005055;28;20038;-90
2023/12/08 09:29:02;;;;;;;80.25;21.67;;;;;;;;;;5007505;28;20048;-89
2023/12/08 09:31:29;;;;;;;456.88;49.55;;;;;;;;;;4994480;28;20107;-90
2023/12/08 09:33:57;;;;;;;349.60;40.67;;;;;;;;;;4992929;28;20038;-90
2023/12/08 09:36:24;;;;;;;91.63;23.38;;;;;;;;;;5016108;28;20946;-90
2023/12/08 09:38:51;;;;;;;91.82;20.92;;;;;;;;;;5013664;28;20534;-89
2023/12/08 09:41:18;;;;;;;83.55;22.13;;;;;;;;;;5021714;28;20048;-89
2023/12/08 09:43:56;;;;;;;75.30;21.95;;;;;;;;;;5026416;28;20038;-90
2023/12/08 09:46:25;;;;;;;115.20;24.20;;;;;;;;;;5024465;28;20061;-88
2023/12/08 09:48:54;;;;;;;120.60;23.98;;;;;;;;;;4997921;28;20487;-90
2023/12/08 09:51:21;;;;;;;66.97;18.08;;;;;;;;;;5010436;28;20392;-90
2023/12/08 09:53:48;;;;;;;106.57;25.05;;;;;;;;;;5013054;28;20038;-90
2023/12/08 09:56:15;;;;;;;112.80;24.60;;;;;;;;;;5009593;28;20499;-91
2023/12/08 09:58:44;;;;;;;107.25;24.58;;;;;;;;;;5001048;28;20381;-89
2023/12/08 10:01:17;;;;;;;83.75;21.92;;;;;;;;;;5020301;28;20045;-90
2023/12/08 10:03:44;;;;;;;78.05;22.52;;;;;;;;;;5020028;28;20034;-90
2023/12/08 10:06:11;;;;;;;160.82;27.88;;;;;;;;;;5019241;28;20464;-88
2023/12/08 10:08:42;;;;;;;96.47;21.50;;;;;;;;;;5019964;28;20125;-90
2023/12/08 10:11:09;;;;;;;73.60;20.90;;;;;;;;;;5023091;28;20030;-90
2023/12/08 10:13:35;;;;;;;119.07;24.15;;;;;;;;;;5023087;28;20033;-89
2023/12/08 10:16:02;;;;;;;93.93;22.20;;;;;;;;;;5022906;28;20038;-90
2023/12/08 10:18:29;;;;;;;63.97;21.25;;;;;;;;;;5023424;28;20041;-89
2023/12/08 10:21:12;;;;;;;93.80;22.48;;;;;;;;;;5018839;28;20380;-90
2023/12/08 10:23:41;;;;;;;58.05;20.70;;;;;;;;;;5019018;28;20049;-90
2023/12/08 10:26:08;;;;;;;105.47;18.38;;;;;;;;;;5022661;28;20469;-90
2023/12/08 10:28:35;;;;;;;88.13;22.48;;;;;;;;;;5013717;28;20041;-89
2023/12/08 10:31:02;;;;;;;81.90;25.67;;;;;;;;;;5023278;28;20038;-90
2023/12/08 10:33:29;;;;;;;111.85;24.60;;;;;;;;;;5022488;28;20034;-90
2023/12/08 10:35:56;;;;;;;59.22;21.17;;;;;;;;;;5016056;28;20058;-90
2023/12/08 10:38:23;;;;;;;85.53;25.23;;;;;;;;;;5020942;28;20030;-90
2023/12/08 10:40:50;;;;;;;113.60;24.95;;;;;;;;;;5022415;28;20356;-90
2023/12/08 10:43:22;;;;;;;108.55;24.73;;;;;;;;;;5018396;28;20132;-90
2023/12/08 10:45:50;;;;;;;74.63;22.85;;;;;;;;;;5027064;28;20045;-90
2023/12/08 10:48:19;;;;;;;124.30;25.80;;;;;;;;;;5005618;28;20065;-89
2023/12/08 10:50:52;;;;;;;120.18;24.27;;;;;;;;;;5018672;28;20095;-89
2023/12/08 10:53:19;;;;;;;99.38;24.55;;;;;;;;;;5026082;28;20061;-90
2023/12/08 10:55:51;;;;;;;87.97;24.45;;;;;;;;;;5012549;28;20033;-89
2023/12/08 10:58:22;;;;;;;89.50;25.77;;;;;;;;;;5001138;28;20143;-89
2023/12/08 11:00:51;;;;;;;105.30;25.10;;;;;;;;;;5026098;28;20051;-89
2023/12/08 11:03:19;;;;;;;99.00;24.90;;;;;;;;;;5022394;28;20519;-90
2023/12/08 11:05:51;;;;;;;91.30;22.98;;;;;;;;;;5021025;28;20036;-89
2023/12/08 11:08:18;;;;;;;99.70;26.92;;;;;;;;;;5011965;28;20046;-90
2023/12/08 11:10:46;;;;;;;123.82;25.75;;;;;;;;;;5016037;28;20853;-88
2023/12/08 11:13:33;;;;;;;96.38;24.98;;;;;;;;;;5006577;28;20042;-89
2023/12/08 11:16:21;;;;;;;94.97;23.15;;;;;;;;;;5020632;28;20045;-89
2023/12/08 11:18:49;;;;;;;122.10;27.48;;;;;;;;;;5006991;28;20492;-89
2023/12/08 11:21:18;;;;;;;144.50;27.10;;;;;;;;;;5026050;28;20041;-89
2023/12/08 11:23:45;;;;;;;106.93;23.60;;;;;;;;;;5026582;28;20041;-89
2023/12/08 11:26:15;;;;;;;148.18;26.83;;;;;;;;;;4992788;28;20045;-88
2023/12/08 11:28:59;;;;;;;135.65;26.73;;;;;;;;;;5027245;28;20454;-90
2023/12/08 11:31:25;;;;;;;208.43;31.38;;;;;;;;;;5024772;28;20404;-89
2023/12/08 11:33:56;;;;;;;91.70;24.15;;;;;;;;;;5010986;28;20041;-89
2023/12/08 11:36:25;;;;;;;80.18;23.50;;;;;;;;;;5010435;28;20534;-89
2023/12/08 11:38:52;;;;;;;104.65;24.33;;;;;;;;;;5025704;28;20030;-89
2023/12/08 11:41:19;;;;;;;112.95;26.20;;;;;;;;;;5027080;28;20365;-89
2023/12/08 11:43:46;;;;;;;91.22;26.42;;;;;;;;;;5025669;28;20036;-89
2023/12/08 11:46:13;;;;;;;131.00;25.05;;;;;;;;;;5027339;28;20025;-90
2023/12/08 11:48:41;;;;;;;105.95;24.63;;;;;;;;;;5029213;28;20033;-90
2023/12/08 11:51:08;;;;;;;97.18;24.60;;;;;;;;;;5027541;28;20027;-90
2023/12/08 11:54:07;;;;;;;131.35;26.77;;;;;;;;;;5011472;28;20511;-89
2023/12/08 11:56:38;;;;;;;81.13;23.48;;;;;;;;;;4977290;28;20134;-89
2023/12/08 11:59:05;;;;;;;106.95;25.13;;;;;;;;;;4968969;28;20122;-90
2023/12/08 12:01:32;;;;;;;186.43;29.58;;;;;;;;;;4975697;28;20477;-90
2023/12/08 12:04:01;;;;;;;66.88;23.58;;;;;;;;;;4981126;28;20122;-89
2023/12/08 12:06:32;;;;;;;85.88;27.55;;;;;;;;;;4963557;28;20065;-89
2023/12/08 12:09:00;;;;;;;97.40;28.35;;;;;;;;;;4967372;28;20057;-90
2023/12/08 12:11:31;;;;;;;158.48;27.38;;;;;;;;;;4980099;28;20043;-90
2023/12/08 12:14:04;;;;;;;123.93;27.90;;;;;;;;;;4980749;28;20046;-90
2023/12/08 12:16:31;;;;;;;214.73;29.48;;;;;;;;;;4971725;28;20078;-90
2023/12/08 12:18:57;;;;;;;119.88;27.38;;;;;;;;;;4972485;28;20564;-89
2023/12/08 12:21:24;;;;;;;140.77;26.75;;;;;;;;;;4955392;28;20046;-90
2023/12/08 12:23:51;;;;;;;93.60;25.65;;;;;;;;;;4967472;28;20050;-89
2023/12/08 12:26:20;;;;;;;97.75;25.95;;;;;;;;;;4968361;28;20059;-90
2023/12/08 12:28:48;;;;;;;125.93;26.85;;;;;;;;;;4955947;28;20051;-90
2023/12/08 12:31:17;;;;;;;125.20;25.60;;;;;;;;;;4972966;28;20030;-90
2023/12/08 12:33:45;;;;;;;86.18;25.25;;;;;;;;;;5023710;28;20045;-89
2023/12/08 12:36:15;;;;;;;148.25;28.23;;;;;;;;;;5014320;28;20091;-89
2023/12/08 12:38:42;;;;;;;107.00;27.33;;;;;;;;;;5010604;28;20029;-89
2023/12/08 12:41:20;;;;;;;86.15;25.55;;;;;;;;;;5029506;28;20038;-89
2023/12/08 12:43:46;;;;;;;78.07;26.05;;;;;;;;;;5026037;28;20037;-89
2023/12/08 12:46:13;;;;;;;132.70;28.98;;;;;;;;;;5010195;28;20032;-89
2023/12/08 12:48:40;;;;;;;91.47;26.83;;;;;;;;;;5026164;28;20528;-89
2023/12/08 12:51:07;;;;;;;95.63;25.35;;;;;;;;;;5010387;28;20029;-89
2023/12/08 12:53:44;;;;;;;109.55;28.38;;;;;;;;;;5028715;28;20057;-89
2023/12/08 12:56:11;;;;;;;154.70;32.92;;;;;;;;;;5028056;28;20104;-89
2023/12/08 12:58:38;;;;;;;113.75;28.17;;;;;;;;;;5029940;28;20041;-89
2023/12/08 13:01:13;;;;;;;80.40;24.35;;;;;;;;;;5009652;28;20042;-89
2023/12/08 13:03:45;;;;;;;91.75;26.05;;;;;;;;;;5021308;28;20411;-89
2023/12/08 13:06:11;;;;;;;149.88;30.98;;;;;;;;;;5005507;28;20115;-89
2023/12/08 13:08:43;;;;;;;87.93;27.70;;;;;;;;;;5012363;28;20045;-89
2023/12/08 13:11:10;;;;;;;100.25;26.00;;;;;;;;;;5020606;28;20033;-91
2023/12/08 13:13:37;;;;;;;137.18;26.33;;;;;;;;;;5014166;28;20541;-89
2023/12/08 13:16:06;;;;;;;126.43;27.20;;;;;;;;;;5004878;28;20038;-90
2023/12/08 13:18:34;;;;;;;85.85;27.92;;;;;;;;;;5011823;28;20129;-89
2023/12/08 13:21:01;;;;;;;77.10;25.70;;;;;;;;;;5024950;28;20041;-89
2023/12/08 13:23:28;;;;;;;128.27;30.23;;;;;;;;;;5011718;28;20566;-88
2023/12/08 13:25:55;;;;;;;96.65;26.48;;;;;;;;;;5012266;28;20037;-88
2023/12/08 13:28:21;;;;;;;135.73;32.33;;;;;;;;;;5008242;28;20026;-89
2023/12/08 13:30:48;;;;;;;124.60;31.83;;;;;;;;;;5022517;28;20045;-88
2023/12/08 13:33:15;;;;;;;81.75;25.52;;;;;;;;;;4985806;28;20038;-88
2023/12/08 13:35:42;;;;;;;79.50;26.80;;;;;;;;;;5002479;28;20034;-89
2023/12/08 13:38:09;;;;;;;118.68;28.13;;;;;;;;;;5025437;28;20033;-89
2023/12/08 13:40:35;;;;;;;110.90;27.17;;;;;;;;;;5021571;28;20017;-89
2023/12/08 13:43:02;;;;;;;102.60;28.45;;;;;;;;;;5003575;28;20038;-89
2023/12/08 13:45:29;;;;;;;143.75;29.02;;;;;;;;;;5021198;28;20395;-88
2023/12/08 13:47:56;;;;;;;114.70;28.83;;;;;;;;;;5010434;28;20070;-89
2023/12/08 13:50:22;;;;;;;145.73;29.55;;;;;;;;;;5010300;28;20045;-90
2023/12/08 13:52:49;;;;;;;167.02;34.15;;;;;;;;;;5003401;28;20033;-89
2023/12/08 13:55:16;;;;;;;197.35;33.03;;;;;;;;;;5017128;28;20057;-88
2023/12/08 13:57:43;;;;;;;117.25;29.77;;;;;;;;;;5017905;28;20042;-88
2023/12/08 14:00:09;;;;;;;133.85;30.20;;;;;;;;;;5025039;28;20461;-88
2023/12/08 14:02:37;;;;;;;95.53;26.77;;;;;;;;;;5023716;28;20116;-89
2023/12/08 14:05:03;;;;;;;138.35;30.83;;;;;;;;;;5020686;28;20099;-89
2023/12/08 14:07:30;;;;;;;168.75;30.52;;;;;;;;;;5013333;28;20041;-88
2023/12/08 14:09:57;;;;;;;87.53;18.65;;;;;;;;;;5023814;28;20169;-89
2023/12/08 14:12:23;;;;;;;93.53;27.10;;;;;;;;;;5012266;28;20030;-88